createdAt,value
2018-02-11T00:00:50.856Z,16.60
2018-02-11T00:01:55.932Z,16.60
2018-02-11T00:03:00.946Z,16.60
2018-02-11T00:04:05.833Z,16.60
2018-02-11T00:05:10.718Z,16.60
2018-02-11T00:06:15.727Z,16.60
2018-02-11T00:07:20.741Z,16.60
2018-02-11T00:08:26.000Z,16.60
2018-02-11T00:09:31.075Z,16.60
2018-02-11T00:10:35.924Z,16.60
2018-02-11T00:11:40.936Z,16.60
2018-02-11T00:12:46.119Z,16.60
2018-02-11T00:13:51.005Z,16.60
2018-02-11T00:14:55.939Z,16.60
2018-02-11T00:16:01.048Z,16.60
2018-02-11T00:17:05.996Z,16.60
2018-02-11T00:18:11.045Z,16.60
2018-02-11T00:19:15.951Z,16.60
2018-02-11T00:20:20.833Z,16.60
2018-02-11T00:21:25.836Z,16.60
2018-02-11T00:22:31.069Z,16.60
2018-02-11T00:23:35.920Z,16.60
2018-02-11T00:24:41.063Z,16.60
2018-02-11T00:25:46.181Z,16.60
2018-02-11T00:26:50.979Z,16.60
2018-02-11T00:27:56.014Z,16.60
2018-02-11T00:29:01.131Z,16.60
2018-02-11T00:30:06.057Z,16.60
2018-02-11T00:31:10.989Z,16.60
2018-02-11T00:32:16.025Z,16.50
2018-02-11T00:33:20.736Z,16.60
2018-02-11T00:34:25.567Z,16.50
2018-02-11T00:35:30.381Z,16.50
2018-02-11T00:36:35.270Z,16.60
2018-02-11T00:37:40.053Z,16.60
2018-02-11T00:38:44.975Z,16.50
2018-02-11T00:39:49.909Z,16.50
2018-02-11T00:40:54.724Z,16.50
2018-02-11T00:41:59.477Z,16.50
2018-02-11T00:43:04.364Z,16.50
2018-02-11T00:44:09.133Z,16.50
2018-02-11T00:45:14.272Z,16.50
2018-02-11T00:46:19.141Z,16.50
2018-02-11T00:47:23.886Z,16.50
2018-02-11T00:48:28.940Z,16.50
2018-02-11T00:49:33.777Z,16.50
2018-02-11T00:50:38.565Z,16.50
2018-02-11T00:51:43.474Z,16.50
2018-02-11T00:52:48.244Z,16.50
2018-02-11T00:53:53.198Z,16.50
2018-02-11T00:54:57.964Z,16.50
2018-02-11T00:56:02.745Z,16.50
2018-02-11T00:57:07.487Z,16.50
2018-02-11T00:58:12.429Z,16.50
2018-02-11T00:59:17.120Z,16.50
2018-02-11T01:00:21.933Z,16.50
2018-02-11T01:01:27.045Z,16.50
2018-02-11T01:02:31.960Z,16.50
2018-02-11T01:03:36.932Z,16.50
2018-02-11T01:04:41.782Z,16.50
2018-02-11T01:05:46.539Z,16.50
2018-02-11T01:06:51.235Z,16.50
2018-02-11T01:07:56.158Z,16.50
2018-02-11T01:09:00.855Z,16.50
2018-02-11T01:10:05.803Z,16.50
2018-02-11T01:11:10.560Z,16.40
2018-02-11T01:12:15.428Z,16.50
2018-02-11T01:13:20.276Z,16.50
2018-02-11T01:14:25.175Z,16.50
2018-02-11T01:15:30.292Z,16.40
2018-02-11T01:16:34.998Z,16.40
2018-02-11T01:17:39.859Z,16.40
2018-02-11T01:18:44.638Z,16.50
2018-02-11T01:19:49.460Z,16.50
2018-02-11T01:20:54.245Z,16.50
2018-02-11T01:22:00.335Z,16.40
2018-02-11T01:23:05.442Z,16.40
2018-02-11T01:24:10.386Z,16.40
2018-02-11T01:25:15.335Z,16.40
2018-02-11T01:26:20.039Z,16.40
2018-02-11T01:27:24.878Z,16.50
2018-02-11T01:28:29.615Z,16.40
2018-02-11T01:29:34.537Z,16.50
2018-02-11T01:30:39.347Z,16.40
2018-02-11T01:31:44.187Z,16.50
2018-02-11T01:32:49.121Z,16.40
2018-02-11T01:33:53.892Z,16.40
2018-02-11T01:34:58.684Z,16.40
2018-02-11T01:36:03.454Z,16.40
2018-02-11T01:37:08.438Z,16.40
2018-02-11T01:38:13.519Z,16.40
2018-02-11T01:39:18.373Z,16.40
2018-02-11T01:40:24.049Z,16.40
2018-02-11T01:41:28.846Z,16.40
2018-02-11T01:42:33.735Z,16.40
2018-02-11T01:43:38.560Z,16.40
2018-02-11T01:44:43.335Z,16.40
2018-02-11T01:45:48.182Z,16.40
2018-02-11T01:46:53.065Z,16.40
2018-02-11T01:47:57.923Z,16.40
2018-02-11T01:49:02.639Z,16.40
2018-02-11T01:50:07.405Z,16.40
2018-02-11T01:51:12.239Z,16.40
2018-02-11T01:52:17.115Z,16.40
2018-02-11T01:53:22.051Z,16.40
2018-02-11T01:54:27.094Z,16.40
2018-02-11T01:55:31.824Z,16.40
2018-02-11T01:56:36.609Z,16.40
2018-02-11T01:57:41.432Z,16.40
2018-02-11T01:58:47.462Z,16.40
2018-02-11T01:59:52.311Z,16.40
2018-02-11T02:00:57.190Z,16.40
2018-02-11T02:02:01.920Z,16.40
2018-02-11T02:03:06.665Z,16.40
2018-02-11T02:04:11.624Z,16.40
2018-02-11T02:05:16.436Z,16.40
2018-02-11T02:06:21.337Z,16.40
2018-02-11T02:07:26.187Z,16.40
2018-02-11T02:08:30.955Z,16.40
2018-02-11T02:09:35.601Z,16.40
2018-02-11T02:10:40.351Z,16.40
2018-02-11T02:11:45.055Z,16.40
2018-02-11T02:12:49.990Z,16.40
2018-02-11T02:13:54.856Z,16.40
2018-02-11T02:14:59.753Z,16.40
2018-02-11T02:16:04.760Z,16.40
2018-02-11T02:17:10.751Z,16.40
2018-02-11T02:18:15.622Z,16.40
2018-02-11T02:19:20.503Z,16.40
2018-02-11T02:20:25.456Z,16.40
2018-02-11T02:21:30.302Z,16.40
2018-02-11T02:22:35.117Z,16.40
2018-02-11T02:23:40.023Z,16.30
2018-02-11T02:24:44.883Z,16.40
2018-02-11T02:25:49.783Z,16.40
2018-02-11T02:26:54.672Z,16.30
2018-02-11T02:28:00.176Z,16.30
2018-02-11T02:29:04.938Z,16.30
2018-02-11T02:30:09.847Z,16.30
2018-02-11T02:31:14.838Z,16.30
2018-02-11T02:32:19.637Z,16.30
2018-02-11T02:33:24.395Z,16.30
2018-02-11T02:34:29.225Z,16.30
2018-02-11T02:35:35.291Z,16.30
2018-02-11T02:36:40.138Z,16.30
2018-02-11T02:37:44.945Z,16.30
2018-02-11T02:38:49.718Z,16.30
2018-02-11T02:39:54.494Z,16.30
2018-02-11T02:40:59.391Z,16.30
2018-02-11T02:42:04.237Z,16.30
2018-02-11T02:43:09.056Z,16.30
2018-02-11T02:44:13.832Z,16.30
2018-02-11T02:45:18.890Z,16.30
2018-02-11T02:46:23.781Z,16.30
2018-02-11T02:47:28.714Z,16.30
2018-02-11T02:48:33.687Z,16.30
2018-02-11T02:49:38.530Z,16.30
2018-02-11T02:50:43.350Z,16.30
2018-02-11T02:51:48.082Z,16.30
2018-02-11T02:52:52.966Z,16.30
2018-02-11T02:53:58.921Z,16.30
2018-02-11T02:55:04.010Z,16.30
2018-02-11T02:56:09.132Z,16.30
2018-02-11T02:57:13.885Z,16.30
2018-02-11T02:58:18.938Z,16.30
2018-02-11T02:59:23.798Z,16.30
2018-02-11T03:00:28.513Z,16.30
2018-02-11T03:01:33.378Z,16.30
2018-02-11T03:02:38.366Z,16.30
2018-02-11T03:03:43.171Z,16.30
2018-02-11T03:04:47.918Z,16.30
2018-02-11T03:05:52.919Z,16.30
2018-02-11T03:06:57.781Z,16.30
2018-02-11T03:08:02.687Z,16.30
2018-02-11T03:09:07.598Z,16.30
2018-02-11T03:10:12.604Z,16.30
2018-02-11T03:11:20.256Z,16.30
2018-02-11T03:12:25.419Z,16.30
2018-02-11T03:13:30.588Z,16.30
2018-02-11T03:14:35.437Z,16.30
2018-02-11T03:15:40.243Z,16.30
2018-02-11T03:16:45.094Z,16.30
2018-02-11T03:17:50.021Z,16.30
2018-02-11T03:18:54.801Z,16.30
2018-02-11T03:19:59.534Z,16.30
2018-02-11T03:21:04.429Z,16.30
2018-02-11T03:22:09.203Z,16.30
2018-02-11T03:23:14.215Z,16.30
2018-02-11T03:24:19.230Z,16.30
2018-02-11T03:25:24.171Z,16.30
2018-02-11T03:26:29.099Z,16.30
2018-02-11T03:27:33.843Z,16.30
2018-02-11T03:28:38.639Z,16.30
2018-02-11T03:29:43.381Z,16.30
2018-02-11T03:30:48.576Z,16.30
2018-02-11T03:31:53.315Z,16.30
2018-02-11T03:32:58.132Z,16.30
2018-02-11T03:34:02.848Z,16.30
2018-02-11T03:35:07.667Z,16.30
2018-02-11T03:36:12.641Z,16.30
2018-02-11T03:37:17.419Z,16.30
2018-02-11T03:38:22.145Z,16.30
2018-02-11T03:39:26.900Z,16.30
2018-02-11T03:40:31.655Z,16.30
2018-02-11T03:41:36.423Z,16.30
2018-02-11T03:42:41.195Z,16.30
2018-02-11T03:43:45.999Z,16.20
2018-02-11T03:44:50.748Z,16.30
2018-02-11T03:45:55.493Z,16.30
2018-02-11T03:47:00.328Z,16.30
2018-02-11T03:48:05.159Z,16.30
2018-02-11T03:49:10.991Z,16.30
2018-02-11T03:50:15.822Z,16.30
2018-02-11T03:51:20.572Z,16.30
2018-02-11T03:52:25.308Z,16.30
2018-02-11T03:53:30.067Z,16.20
2018-02-11T03:54:35.003Z,16.20
2018-02-11T03:55:39.782Z,16.20
2018-02-11T03:56:44.758Z,16.20
2018-02-11T03:57:49.743Z,16.20
2018-02-11T03:58:54.730Z,16.20
2018-02-11T03:59:59.585Z,16.20
2018-02-11T04:01:04.342Z,16.20
2018-02-11T04:02:09.192Z,16.20
2018-02-11T04:03:13.896Z,16.20
2018-02-11T04:04:18.656Z,16.20
2018-02-11T04:05:23.552Z,16.20
2018-02-11T04:06:28.259Z,16.20
2018-02-11T04:07:34.049Z,16.20
2018-02-11T04:08:38.899Z,16.20
2018-02-11T04:09:43.610Z,16.20
2018-02-11T04:10:48.434Z,16.20
2018-02-11T04:11:53.208Z,16.20
2018-02-11T04:12:58.021Z,16.20
2018-02-11T04:14:02.756Z,16.20
2018-02-11T04:15:07.536Z,16.20
2018-02-11T04:16:12.364Z,16.20
2018-02-11T04:17:17.104Z,16.20
2018-02-11T04:18:21.818Z,16.20
2018-02-11T04:19:26.495Z,16.20
2018-02-11T04:20:31.257Z,16.20
2018-02-11T04:21:36.028Z,16.20
2018-02-11T04:22:40.777Z,16.20
2018-02-11T04:23:45.628Z,16.20
2018-02-11T04:24:50.475Z,16.20
2018-02-11T04:25:55.236Z,16.20
2018-02-11T04:27:00.315Z,16.20
2018-02-11T04:28:05.051Z,16.20
2018-02-11T04:29:09.884Z,16.20
2018-02-11T04:30:14.763Z,16.20
2018-02-11T04:31:19.666Z,16.20
2018-02-11T04:32:24.446Z,16.20
2018-02-11T04:33:29.326Z,16.20
2018-02-11T04:34:34.116Z,16.20
2018-02-11T04:35:39.093Z,16.20
2018-02-11T04:36:44.061Z,16.20
2018-02-11T04:37:48.952Z,16.20
2018-02-11T04:38:53.730Z,16.20
2018-02-11T04:39:58.549Z,16.20
2018-02-11T04:41:03.398Z,16.20
2018-02-11T04:42:08.162Z,16.20
2018-02-11T04:43:13.085Z,16.20
2018-02-11T04:44:17.984Z,16.20
2018-02-11T04:45:22.866Z,16.20
2018-02-11T04:46:27.630Z,16.20
2018-02-11T04:47:32.472Z,16.20
2018-02-11T04:48:37.454Z,16.20
2018-02-11T04:49:42.433Z,16.20
2018-02-11T04:50:47.387Z,16.20
2018-02-11T04:51:52.143Z,16.20
2018-02-11T04:52:57.130Z,16.20
2018-02-11T04:54:01.999Z,16.20
2018-02-11T04:55:06.811Z,16.20
2018-02-11T04:56:11.661Z,16.20
2018-02-11T04:57:16.585Z,16.20
2018-02-11T04:58:21.520Z,16.20
2018-02-11T04:59:26.224Z,16.20
2018-02-11T05:00:31.172Z,16.20
2018-02-11T05:01:36.066Z,16.20
2018-02-11T05:02:40.977Z,16.20
2018-02-11T05:03:45.761Z,16.20
2018-02-11T05:04:50.587Z,16.20
2018-02-11T05:05:55.509Z,16.20
2018-02-11T05:07:00.283Z,16.20
2018-02-11T05:08:05.232Z,16.20
2018-02-11T05:09:09.960Z,16.20
2018-02-11T05:10:14.708Z,16.20
2018-02-11T05:11:19.688Z,16.20
2018-02-11T05:12:24.608Z,16.20
2018-02-11T05:13:29.444Z,16.20
2018-02-11T05:14:34.338Z,16.20
2018-02-11T05:15:39.125Z,16.20
2018-02-11T05:16:43.817Z,16.20
2018-02-11T05:17:48.859Z,16.20
2018-02-11T05:18:54.436Z,16.20
2018-02-11T05:19:59.331Z,16.20
2018-02-11T05:21:04.136Z,16.20
2018-02-11T05:22:08.908Z,16.20
2018-02-11T05:23:13.729Z,16.20
2018-02-11T05:24:18.583Z,16.20
2018-02-11T05:25:25.893Z,16.20
2018-02-11T05:26:30.818Z,16.20
2018-02-11T05:27:35.689Z,16.20
2018-02-11T05:28:40.485Z,16.20
2018-02-11T05:29:45.325Z,16.20
2018-02-11T05:30:50.248Z,16.20
2018-02-11T05:31:55.093Z,16.20
2018-02-11T05:33:00.001Z,16.20
2018-02-11T05:34:05.000Z,16.20
2018-02-11T05:35:09.870Z,16.20
2018-02-11T05:36:14.705Z,16.20
2018-02-11T05:37:19.598Z,16.20
2018-02-11T05:38:25.496Z,16.20
2018-02-11T05:39:30.335Z,16.20
2018-02-11T05:40:35.403Z,16.20
2018-02-11T05:41:40.214Z,16.20
2018-02-11T05:42:45.220Z,16.20
2018-02-11T05:43:50.111Z,16.20
2018-02-11T05:44:55.070Z,16.20
2018-02-11T05:45:59.925Z,16.10
2018-02-11T05:47:04.779Z,16.20
2018-02-11T05:48:09.461Z,16.20
2018-02-11T05:49:14.300Z,16.20
2018-02-11T05:50:19.097Z,16.10
2018-02-11T05:51:23.970Z,16.10
2018-02-11T05:52:28.891Z,16.10
2018-02-11T05:53:33.631Z,16.10
2018-02-11T05:54:38.496Z,16.10
2018-02-11T05:55:43.303Z,16.10
2018-02-11T05:56:48.369Z,16.10
2018-02-11T05:57:53.380Z,16.20
2018-02-11T05:58:58.352Z,16.20
2018-02-11T06:00:03.094Z,16.20
2018-02-11T06:01:07.906Z,16.20
2018-02-11T06:02:12.807Z,16.30
2018-02-11T06:03:17.639Z,16.30
2018-02-11T06:04:22.415Z,16.40
2018-02-11T06:05:27.358Z,16.40
2018-02-11T06:06:32.187Z,16.50
2018-02-11T06:07:37.510Z,16.60
2018-02-11T06:08:42.550Z,16.70
2018-02-11T06:09:47.450Z,16.70
2018-02-11T06:10:52.250Z,16.80
2018-02-11T06:11:57.114Z,17.00
2018-02-11T06:13:01.990Z,17.10
2018-02-11T06:14:06.678Z,17.20
2018-02-11T06:15:11.467Z,17.30
2018-02-11T06:16:16.419Z,17.40
2018-02-11T06:17:21.336Z,17.60
2018-02-11T06:18:26.047Z,17.70
2018-02-11T06:19:30.909Z,17.80
2018-02-11T06:20:35.688Z,17.90
2018-02-11T06:21:40.605Z,18.00
2018-02-11T06:22:45.357Z,18.10
2018-02-11T06:23:50.292Z,18.20
2018-02-11T06:24:55.076Z,18.30
2018-02-11T06:25:59.932Z,18.40
2018-02-11T06:27:04.704Z,18.50
2018-02-11T06:28:09.919Z,18.60
2018-02-11T06:29:14.724Z,18.60
2018-02-11T06:30:19.422Z,18.70
2018-02-11T06:31:24.142Z,18.80
2018-02-11T06:32:28.935Z,18.90
2018-02-11T06:33:33.888Z,18.90
2018-02-11T06:34:38.831Z,19.00
2018-02-11T06:35:43.589Z,19.10
2018-02-11T06:36:48.536Z,19.10
2018-02-11T06:37:53.366Z,19.20
2018-02-11T06:38:58.189Z,19.20
2018-02-11T06:40:02.965Z,19.30
2018-02-11T06:41:07.807Z,19.30
2018-02-11T06:42:12.666Z,19.30
2018-02-11T06:43:17.389Z,19.30
2018-02-11T06:44:22.475Z,19.30
2018-02-11T06:45:27.519Z,19.20
2018-02-11T06:46:32.310Z,19.20
2018-02-11T06:47:37.251Z,19.20
2018-02-11T06:48:42.205Z,19.20
2018-02-11T06:49:47.079Z,19.20
2018-02-11T06:50:51.962Z,19.20
2018-02-11T06:51:56.732Z,19.20
2018-02-11T06:53:01.626Z,19.20
2018-02-11T06:54:06.423Z,19.20
2018-02-11T06:55:11.502Z,19.20
2018-02-11T06:56:16.888Z,19.20
2018-02-11T06:57:22.190Z,19.20
2018-02-11T06:58:27.217Z,19.20
2018-02-11T06:59:32.023Z,19.20
2018-02-11T07:00:36.836Z,19.20
2018-02-11T07:01:41.532Z,19.20
2018-02-11T07:02:46.354Z,19.20
2018-02-11T07:03:51.146Z,19.20
2018-02-11T07:04:56.042Z,19.20
2018-02-11T07:06:00.977Z,19.20
2018-02-11T07:07:05.896Z,19.10
2018-02-11T07:08:10.727Z,19.00
2018-02-11T07:09:15.721Z,19.00
2018-02-11T07:10:20.605Z,19.00
2018-02-11T07:11:25.510Z,19.00
2018-02-11T07:12:30.563Z,18.90
2018-02-11T07:13:35.275Z,19.00
2018-02-11T07:14:41.390Z,18.90
2018-02-11T07:15:46.265Z,18.90
2018-02-11T07:16:51.355Z,18.90
2018-02-11T07:17:56.260Z,18.90
2018-02-11T07:19:01.180Z,18.90
2018-02-11T07:20:05.968Z,18.90
2018-02-11T07:21:10.730Z,18.90
2018-02-11T07:22:15.586Z,18.90
2018-02-11T07:23:20.364Z,18.90
2018-02-11T07:24:25.273Z,18.80
2018-02-11T07:25:30.196Z,18.80
2018-02-11T07:26:35.001Z,18.70
2018-02-11T07:27:39.803Z,18.70
2018-02-11T07:28:44.644Z,18.70
2018-02-11T07:29:49.488Z,18.60
2018-02-11T07:30:54.585Z,18.60
2018-02-11T07:31:59.380Z,18.60
2018-02-11T07:33:04.897Z,18.60
2018-02-11T07:34:09.874Z,18.60
2018-02-11T07:35:14.876Z,18.60
2018-02-11T07:36:19.855Z,18.60
2018-02-11T07:37:24.805Z,18.50
2018-02-11T07:38:29.794Z,18.50
2018-02-11T07:39:34.961Z,18.50
2018-02-11T07:40:40.114Z,18.50
2018-02-11T07:41:45.035Z,18.50
2018-02-11T07:42:49.854Z,18.50
2018-02-11T07:43:54.861Z,18.40
2018-02-11T07:44:59.681Z,18.30
2018-02-11T07:46:04.371Z,18.30
2018-02-11T07:47:09.160Z,18.20
2018-02-11T07:48:14.067Z,18.10
2018-02-11T07:49:18.979Z,18.10
2018-02-11T07:50:24.039Z,18.20
2018-02-11T07:51:29.207Z,18.20
2018-02-11T07:52:34.026Z,18.20
2018-02-11T07:53:38.825Z,18.30
2018-02-11T07:54:43.877Z,18.20
2018-02-11T07:55:48.812Z,18.20
2018-02-11T07:56:53.636Z,18.20
2018-02-11T07:57:58.585Z,18.20
2018-02-11T07:59:03.467Z,18.20
2018-02-11T08:00:08.441Z,18.10
2018-02-11T08:01:13.471Z,18.10
2018-02-11T08:02:18.263Z,18.10
2018-02-11T08:03:23.170Z,18.10
2018-02-11T08:04:27.960Z,18.10
2018-02-11T08:05:32.778Z,18.00
2018-02-11T08:06:37.836Z,18.10
2018-02-11T08:07:42.671Z,18.10
2018-02-11T08:08:47.718Z,18.10
2018-02-11T08:09:53.001Z,18.10
2018-02-11T08:10:57.927Z,18.10
2018-02-11T08:12:02.926Z,18.10
2018-02-11T08:13:07.775Z,18.00
2018-02-11T08:14:12.718Z,18.00
2018-02-11T08:15:17.514Z,18.10
2018-02-11T08:16:22.743Z,18.10
2018-02-11T08:17:27.697Z,18.10
2018-02-11T08:18:32.797Z,18.00
2018-02-11T08:19:37.708Z,18.00
2018-02-11T08:20:42.971Z,18.00
2018-02-11T08:21:47.964Z,18.00
2018-02-11T08:22:52.830Z,18.00
2018-02-11T08:23:57.759Z,18.00
2018-02-11T08:25:02.782Z,18.00
2018-02-11T08:26:07.651Z,18.00
2018-02-11T08:27:12.585Z,18.00
2018-02-11T08:28:17.430Z,18.00
2018-02-11T08:29:22.244Z,17.90
2018-02-11T08:30:27.093Z,17.90
2018-02-11T08:31:32.435Z,17.80
2018-02-11T08:32:37.386Z,17.80
2018-02-11T08:33:42.223Z,17.80
2018-02-11T08:34:47.110Z,17.80
2018-02-11T08:35:51.919Z,17.80
2018-02-11T08:36:56.846Z,17.70
2018-02-11T08:38:01.652Z,17.70
2018-02-11T08:39:06.559Z,17.60
2018-02-11T08:40:11.333Z,17.60
2018-02-11T08:41:16.305Z,17.60
2018-02-11T08:42:21.177Z,17.60
2018-02-11T08:43:26.162Z,17.60
2018-02-11T08:44:31.104Z,17.60
2018-02-11T08:45:35.912Z,17.60
2018-02-11T08:46:41.012Z,17.60
2018-02-11T08:47:45.864Z,17.60
2018-02-11T08:48:50.680Z,17.70
2018-02-11T08:49:55.560Z,17.70
2018-02-11T08:51:00.480Z,17.70
2018-02-11T08:52:05.281Z,17.80
2018-02-11T08:53:10.105Z,17.80
2018-02-11T08:54:14.896Z,17.80
2018-02-11T08:55:20.304Z,17.80
2018-02-11T08:56:25.206Z,17.80
2018-02-11T08:57:30.220Z,17.80
2018-02-11T08:58:35.142Z,17.80
2018-02-11T08:59:39.961Z,17.80
2018-02-11T09:00:44.789Z,17.80
2018-02-11T09:01:49.672Z,17.80
2018-02-11T09:02:54.519Z,17.80
2018-02-11T09:03:59.367Z,17.80
2018-02-11T09:05:04.541Z,17.80
2018-02-11T09:06:09.499Z,17.80
2018-02-11T09:07:14.276Z,17.80
2018-02-11T09:08:19.228Z,17.80
2018-02-11T09:09:24.128Z,17.80
2018-02-11T09:10:28.894Z,17.80
2018-02-11T09:11:33.700Z,17.80
2018-02-11T09:12:38.624Z,17.80
2018-02-11T09:13:43.655Z,17.80
2018-02-11T09:14:48.576Z,17.80
2018-02-11T09:15:53.402Z,17.70
2018-02-11T09:16:58.238Z,17.50
2018-02-11T09:18:03.184Z,17.40
2018-02-11T09:19:08.070Z,17.40
2018-02-11T09:20:13.110Z,17.50
2018-02-11T09:21:18.202Z,17.50
2018-02-11T09:22:23.200Z,17.30
2018-02-11T09:23:28.635Z,17.10
2018-02-11T09:24:33.453Z,16.80
2018-02-11T09:25:38.364Z,16.60
2018-02-11T09:26:43.194Z,16.40
2018-02-11T09:27:48.069Z,16.30
2018-02-11T09:28:53.168Z,16.20
2018-02-11T09:29:58.259Z,16.20
2018-02-11T09:31:03.242Z,16.40
2018-02-11T09:32:08.286Z,16.50
2018-02-11T09:33:13.248Z,16.70
2018-02-11T09:34:18.058Z,16.90
2018-02-11T09:35:23.092Z,17.00
2018-02-11T09:36:28.048Z,17.10
2018-02-11T09:37:32.998Z,17.30
2018-02-11T09:38:38.022Z,17.40
2018-02-11T09:39:42.920Z,17.50
2018-02-11T09:40:47.796Z,17.60
2018-02-11T09:41:52.941Z,17.70
2018-02-11T09:42:57.890Z,17.80
2018-02-11T09:44:02.896Z,17.90
2018-02-11T09:45:07.649Z,18.00
2018-02-11T09:46:12.492Z,18.10
2018-02-11T09:47:17.400Z,18.10
2018-02-11T09:48:22.486Z,18.20
2018-02-11T09:49:27.445Z,18.20
2018-02-11T09:50:32.209Z,18.30
2018-02-11T09:51:37.072Z,18.30
2018-02-11T09:52:41.924Z,18.30
2018-02-11T09:53:46.768Z,18.30
2018-02-11T09:54:51.497Z,18.40
2018-02-11T09:55:56.468Z,18.30
2018-02-11T09:57:01.480Z,18.30
2018-02-11T09:58:06.232Z,18.40
2018-02-11T09:59:11.232Z,18.30
2018-02-11T10:00:16.623Z,18.30
2018-02-11T10:01:21.428Z,18.30
2018-02-11T10:02:26.531Z,18.20
2018-02-11T10:03:31.506Z,18.20
2018-02-11T10:04:36.350Z,18.10
2018-02-11T10:05:41.293Z,18.00
2018-02-11T10:06:46.274Z,18.00
2018-02-11T10:07:51.307Z,18.00
2018-02-11T10:08:56.074Z,18.00
2018-02-11T10:10:00.864Z,18.00
2018-02-11T10:11:05.787Z,18.00
2018-02-11T10:12:10.748Z,18.00
2018-02-11T10:13:15.664Z,18.10
2018-02-11T10:14:20.623Z,18.00
2018-02-11T10:15:25.511Z,18.10
2018-02-11T10:16:30.317Z,18.00
2018-02-11T10:17:35.905Z,18.00
2018-02-11T10:18:40.861Z,17.90
2018-02-11T10:19:45.700Z,17.90
2018-02-11T10:20:50.564Z,17.90
2018-02-11T10:21:55.333Z,18.00
2018-02-11T10:23:00.350Z,18.10
2018-02-11T10:24:05.311Z,18.10
2018-02-11T10:25:10.827Z,18.20
2018-02-11T10:26:15.758Z,18.30
2018-02-11T10:27:20.596Z,18.20
2018-02-11T10:28:25.384Z,18.30
2018-02-11T10:29:30.368Z,18.30
2018-02-11T10:30:35.470Z,18.30
2018-02-11T10:31:40.397Z,18.30
2018-02-11T10:32:45.272Z,18.30
2018-02-11T10:33:50.161Z,18.30
2018-02-11T10:34:54.987Z,18.40
2018-02-11T10:35:59.972Z,18.40
2018-02-11T10:37:05.112Z,18.40
2018-02-11T10:38:09.856Z,18.40
2018-02-11T10:39:14.701Z,18.40
2018-02-11T10:40:19.945Z,18.30
2018-02-11T10:41:25.021Z,18.30
2018-02-11T10:42:30.018Z,18.30
2018-02-11T10:43:34.977Z,18.20
2018-02-11T10:44:39.745Z,18.20
2018-02-11T10:45:44.585Z,18.10
2018-02-11T10:46:49.661Z,18.10
2018-02-11T10:47:54.579Z,18.00
2018-02-11T10:48:59.438Z,18.00
2018-02-11T10:50:04.656Z,17.90
2018-02-11T10:51:09.461Z,17.90
2018-02-11T10:52:14.922Z,17.90
2018-02-11T10:53:20.048Z,17.90
2018-02-11T10:54:25.122Z,17.90
2018-02-11T10:55:30.278Z,17.80
2018-02-11T10:56:35.127Z,17.90
2018-02-11T10:57:40.078Z,17.90
2018-02-11T10:58:45.673Z,17.90
2018-02-11T10:59:50.516Z,17.80
2018-02-11T11:00:55.303Z,17.60
2018-02-11T11:02:00.213Z,17.50
2018-02-11T11:03:05.123Z,17.40
2018-02-11T11:04:09.888Z,17.40
2018-02-11T11:05:14.948Z,17.40
2018-02-11T11:06:19.839Z,17.30
2018-02-11T11:07:24.837Z,17.40
2018-02-11T11:08:29.838Z,17.40
2018-02-11T11:09:34.874Z,17.50
2018-02-11T11:10:39.665Z,17.40
2018-02-11T11:11:44.575Z,17.40
2018-02-11T11:12:49.405Z,17.50
2018-02-11T11:13:54.324Z,17.50
2018-02-11T11:14:59.236Z,17.40
2018-02-11T11:16:04.227Z,17.40
2018-02-11T11:17:09.442Z,17.40
2018-02-11T11:18:14.362Z,17.40
2018-02-11T11:19:19.155Z,17.40
2018-02-11T11:20:23.945Z,17.40
2018-02-11T11:21:29.014Z,17.40
2018-02-11T11:22:33.879Z,17.40
2018-02-11T11:23:38.741Z,17.40
2018-02-11T11:24:43.695Z,17.30
2018-02-11T11:25:48.455Z,17.30
2018-02-11T11:26:53.317Z,17.30
2018-02-11T11:27:58.107Z,17.30
2018-02-11T11:29:03.279Z,17.30
2018-02-11T11:30:08.305Z,17.40
2018-02-11T11:31:13.240Z,17.30
2018-02-11T11:32:18.103Z,17.30
2018-02-11T11:33:22.939Z,17.30
2018-02-11T11:34:27.783Z,17.30
2018-02-11T11:35:32.589Z,17.30
2018-02-11T11:36:37.660Z,17.30
2018-02-11T11:37:42.765Z,17.30
2018-02-11T11:38:47.607Z,17.30
2018-02-11T11:39:52.472Z,17.30
2018-02-11T11:40:57.263Z,17.30
2018-02-11T11:42:02.275Z,17.40
2018-02-11T11:43:07.184Z,17.40
2018-02-11T11:44:12.031Z,17.40
2018-02-11T11:45:16.991Z,17.40
2018-02-11T11:46:21.942Z,17.40
2018-02-11T11:47:26.967Z,17.40
2018-02-11T11:48:31.814Z,17.40
2018-02-11T11:49:36.825Z,17.40
2018-02-11T11:50:41.829Z,17.30
2018-02-11T11:51:46.654Z,17.40
2018-02-11T11:52:51.502Z,17.40
2018-02-11T11:53:56.276Z,17.40
2018-02-11T11:55:01.068Z,17.40
2018-02-11T11:56:06.096Z,17.40
2018-02-11T11:57:10.920Z,17.40
2018-02-11T11:58:15.729Z,17.40
2018-02-11T11:59:20.578Z,17.40
2018-02-11T12:00:25.730Z,17.40
2018-02-11T12:01:30.525Z,17.40
2018-02-11T12:02:35.541Z,17.40
2018-02-11T12:03:40.543Z,17.40
2018-02-11T12:04:45.944Z,17.40
2018-02-11T12:05:51.432Z,17.40
2018-02-11T12:06:56.299Z,17.40
2018-02-11T12:08:01.322Z,17.40
2018-02-11T12:09:06.267Z,17.40
2018-02-11T12:10:11.219Z,17.40
2018-02-11T12:11:16.305Z,17.30
2018-02-11T12:12:21.121Z,17.40
2018-02-11T12:13:26.264Z,17.40
2018-02-11T12:14:31.585Z,17.40
2018-02-11T12:15:36.725Z,17.40
2018-02-11T12:16:41.841Z,17.40
2018-02-11T12:17:46.678Z,17.40
2018-02-11T12:18:51.552Z,17.40
2018-02-11T12:19:56.729Z,17.30
2018-02-11T12:21:01.694Z,17.30
2018-02-11T12:22:06.788Z,17.30
2018-02-11T12:23:11.720Z,17.30
2018-02-11T12:24:16.750Z,17.30
2018-02-11T12:25:21.626Z,17.40
2018-02-11T12:26:26.536Z,17.40
2018-02-11T12:27:31.308Z,17.40
2018-02-11T12:28:36.310Z,17.40
2018-02-11T12:29:41.598Z,17.40
2018-02-11T12:30:46.622Z,17.50
2018-02-11T12:31:51.622Z,17.50
2018-02-11T12:32:56.628Z,17.50
2018-02-11T12:34:01.575Z,17.50
2018-02-11T12:35:06.592Z,17.60
2018-02-11T12:36:11.523Z,17.60
2018-02-11T12:37:16.375Z,17.60
2018-02-11T12:38:21.660Z,17.50
2018-02-11T12:39:26.552Z,17.60
2018-02-11T12:40:31.321Z,17.60
2018-02-11T12:41:36.398Z,17.60
2018-02-11T12:42:41.467Z,17.60
2018-02-11T12:43:46.329Z,17.60
2018-02-11T12:44:51.331Z,17.60
2018-02-11T12:45:56.349Z,17.60
2018-02-11T12:47:01.257Z,17.60
2018-02-11T12:48:06.263Z,17.60
2018-02-11T12:49:11.736Z,17.60
2018-02-11T12:50:16.864Z,17.60
2018-02-11T12:51:22.119Z,17.60
2018-02-11T12:52:27.185Z,17.70
2018-02-11T12:53:32.159Z,17.70
2018-02-11T12:54:37.611Z,17.70
2018-02-11T12:55:42.685Z,17.70
2018-02-11T12:56:47.841Z,17.60
2018-02-11T12:57:52.977Z,17.60
2018-02-11T12:58:57.869Z,17.60
2018-02-11T13:00:02.899Z,17.60
2018-02-11T13:01:07.780Z,17.60
2018-02-11T13:02:12.655Z,17.60
2018-02-11T13:03:17.479Z,17.60
2018-02-11T13:04:22.450Z,17.60
2018-02-11T13:05:27.353Z,17.60
2018-02-11T13:06:33.211Z,17.60
2018-02-11T13:07:38.025Z,17.60
2018-02-11T13:08:43.100Z,17.70
2018-02-11T13:09:48.168Z,17.70
2018-02-11T13:10:53.252Z,17.70
2018-02-11T13:11:58.614Z,17.70
2018-02-11T13:13:03.757Z,17.80
2018-02-11T13:14:08.914Z,17.80
2018-02-11T13:15:13.906Z,17.80
2018-02-11T13:16:19.208Z,17.80
2018-02-11T13:17:24.225Z,17.80
2018-02-11T13:18:29.406Z,17.80
2018-02-11T13:19:34.432Z,17.80
2018-02-11T13:20:39.448Z,17.80
2018-02-11T13:21:44.319Z,17.90
2018-02-11T13:22:49.477Z,17.90
2018-02-11T13:23:54.566Z,17.90
2018-02-11T13:25:01.748Z,17.90
2018-02-11T13:26:06.950Z,17.90
2018-02-11T13:27:11.899Z,17.90
2018-02-11T13:28:16.758Z,17.90
2018-02-11T13:29:21.604Z,17.90
2018-02-11T13:30:27.154Z,17.90
2018-02-11T13:31:32.357Z,17.90
2018-02-11T13:32:37.518Z,17.90
2018-02-11T13:33:42.506Z,17.90
2018-02-11T13:34:47.724Z,17.90
2018-02-11T13:35:52.544Z,17.80
2018-02-11T13:36:57.790Z,17.90
2018-02-11T13:38:02.798Z,17.90
2018-02-11T13:39:07.957Z,17.90
2018-02-11T13:40:13.140Z,17.90
2018-02-11T13:41:18.244Z,17.90
2018-02-11T13:42:23.445Z,17.90
2018-02-11T13:43:28.848Z,17.90
2018-02-11T13:44:33.850Z,17.90
2018-02-11T13:45:39.298Z,17.90
2018-02-11T13:46:44.386Z,17.90
2018-02-11T13:47:49.689Z,17.90
2018-02-11T13:48:54.715Z,17.90
2018-02-11T13:50:00.120Z,17.90
2018-02-11T13:51:05.034Z,17.90
2018-02-11T13:52:09.984Z,17.90
2018-02-11T13:53:15.053Z,17.90
2018-02-11T13:54:20.047Z,17.90
2018-02-11T13:55:24.988Z,17.90
2018-02-11T13:56:29.783Z,18.00